createdAt,value
2018-08-19T00:01:31.591Z,10.83
2018-08-19T00:04:00.565Z,10.67
2018-08-19T00:06:29.399Z,10.10
2018-08-19T00:09:02.342Z,10.47
2018-08-19T00:11:31.224Z,10.50
2018-08-19T00:14:00.039Z,11.30
2018-08-19T00:16:29.238Z,10.43
2018-08-19T00:18:58.074Z,10.93
2018-08-19T00:21:26.951Z,9.90
2018-08-19T00:23:55.792Z,9.93
2018-08-19T00:26:24.594Z,9.63
2018-08-19T00:28:53.430Z,10.97
2018-08-19T00:31:22.218Z,11.83
2018-08-19T00:33:51.115Z,9.80
2018-08-19T00:36:26.891Z,9.97
2018-08-19T00:38:56.520Z,9.90
2018-08-19T00:41:25.543Z,10.43
2018-08-19T00:43:54.398Z,10.03
2018-08-19T00:46:32.101Z,10.07
2018-08-19T00:49:01.603Z,10.10
2018-08-19T00:51:30.446Z,9.97
2018-08-19T00:53:59.266Z,9.73
2018-08-19T00:56:28.095Z,9.67
2018-08-19T00:58:57.003Z,9.87
2018-08-19T01:01:32.962Z,8.87
2018-08-19T01:04:01.842Z,9.50
2018-08-19T01:06:33.744Z,9.80
2018-08-19T01:09:02.585Z,9.63
2018-08-19T01:11:36.637Z,10.27
2018-08-19T01:14:09.761Z,9.63
2018-08-19T01:16:38.602Z,8.87
2018-08-19T01:19:08.113Z,9.77
2018-08-19T01:21:37.365Z,9.03
2018-08-19T01:24:10.882Z,9.03
2018-08-19T01:26:41.083Z,9.37
2018-08-19T01:29:11.111Z,9.57
2018-08-19T01:31:40.027Z,9.77
2018-08-19T01:34:11.118Z,9.80
2018-08-19T01:36:39.995Z,9.53
2018-08-19T01:39:11.785Z,10.17
2018-08-19T01:41:41.392Z,9.23
2018-08-19T01:44:14.781Z,9.33
2018-08-19T01:46:48.156Z,8.93
2018-08-19T01:49:16.959Z,9.73
2018-08-19T01:51:46.490Z,9.53
2018-08-19T01:54:20.540Z,9.57
2018-08-19T01:56:56.680Z,10.03
2018-08-19T01:59:34.661Z,9.37
2018-08-19T02:02:05.104Z,10.90
2018-08-19T02:04:35.688Z,9.53
2018-08-19T02:07:04.632Z,10.27
2018-08-19T02:09:33.504Z,13.80
2018-08-19T02:12:02.360Z,12.07
2018-08-19T02:14:31.267Z,9.57
2018-08-19T02:17:00.188Z,9.03
2018-08-19T02:19:29.007Z,10.13
2018-08-19T02:21:57.796Z,10.53
2018-08-19T02:24:26.635Z,10.07
2018-08-19T02:26:55.466Z,12.47
2018-08-19T02:29:33.450Z,11.30
2018-08-19T02:32:03.454Z,11.53
2018-08-19T02:34:37.275Z,12.20
2018-08-19T02:37:13.708Z,12.07
2018-08-19T02:39:44.562Z,11.67
2018-08-19T02:42:25.306Z,11.53
2018-08-19T02:44:58.479Z,11.80
2018-08-19T02:47:27.632Z,11.87
2018-08-19T02:49:56.454Z,11.60
2018-08-19T02:52:28.482Z,11.70
2018-08-19T02:54:59.363Z,10.73
2018-08-19T02:57:29.098Z,10.27
2018-08-19T02:59:58.796Z,10.17
2018-08-19T03:02:34.601Z,10.20
2018-08-19T03:05:06.553Z,10.57
2018-08-19T03:07:35.422Z,10.13
2018-08-19T03:10:09.811Z,9.80
2018-08-19T03:12:38.987Z,10.33
2018-08-19T03:15:09.076Z,10.53
2018-08-19T03:17:38.185Z,10.40
2018-08-19T03:20:09.729Z,9.43
2018-08-19T03:22:38.575Z,9.97
2018-08-19T03:25:08.208Z,9.93
2018-08-19T03:27:37.071Z,10.50
2018-08-19T03:30:10.798Z,12.53
2018-08-19T03:32:49.367Z,10.97
2018-08-19T03:35:19.989Z,14.57
2018-08-19T03:37:51.263Z,20.00
2018-08-19T03:40:20.775Z,20.23
2018-08-19T03:42:49.567Z,11.73
2018-08-19T03:45:19.012Z,11.03
2018-08-19T03:47:48.421Z,11.37
2018-08-19T03:50:22.072Z,10.47
2018-08-19T03:52:51.750Z,10.10
2018-08-19T03:55:25.926Z,10.10
2018-08-19T03:57:59.530Z,12.93
2018-08-19T04:00:30.394Z,11.17
2018-08-19T04:02:59.188Z,9.90
2018-08-19T04:05:42.166Z,10.03
2018-08-19T04:08:12.634Z,10.00
2018-08-19T04:10:42.523Z,11.80
2018-08-19T04:13:45.336Z,16.03
2018-08-19T04:16:14.242Z,22.90
2018-08-19T04:18:45.207Z,26.27
2018-08-19T04:21:15.277Z,26.17
2018-08-19T04:23:47.108Z,23.63
2018-08-19T04:26:15.904Z,21.50
2018-08-19T04:28:45.563Z,24.00
2018-08-19T04:31:19.754Z,24.33
2018-08-19T04:33:49.267Z,22.07
2018-08-19T04:36:19.432Z,26.47
2018-08-19T04:38:48.238Z,23.03
2018-08-19T04:41:17.195Z,20.40
2018-08-19T04:43:46.705Z,20.33
2018-08-19T04:46:15.571Z,19.43
2018-08-19T04:48:46.259Z,18.40
2018-08-19T04:51:15.082Z,16.90
2018-08-19T04:53:43.942Z,18.83
2018-08-19T04:56:12.773Z,18.80
2018-08-19T04:58:41.610Z,19.20
2018-08-19T05:01:11.013Z,41.03
2018-08-19T05:03:39.883Z,17.10
2018-08-19T05:06:08.703Z,20.43
2018-08-19T05:08:37.560Z,16.67
2018-08-19T05:11:06.422Z,16.67
2018-08-19T05:13:35.270Z,16.03
2018-08-19T05:16:04.127Z,19.80
2018-08-19T05:18:32.965Z,19.40
2018-08-19T05:21:17.066Z,21.50
2018-08-19T05:23:46.282Z,19.50
2018-08-19T05:26:15.479Z,24.70
2018-08-19T05:28:53.134Z,22.40
2018-08-19T05:31:22.019Z,18.87
2018-08-19T05:33:50.807Z,22.07
2018-08-19T05:36:19.751Z,15.83
2018-08-19T05:38:48.678Z,12.63
2018-08-19T05:41:17.530Z,12.10
2018-08-19T05:43:52.930Z,11.07
2018-08-19T05:46:21.708Z,12.93
2018-08-19T05:48:51.509Z,11.33
2018-08-19T05:51:20.307Z,12.33
2018-08-19T05:53:53.684Z,12.00
2018-08-19T05:56:22.706Z,10.90
2018-08-19T05:59:28.829Z,13.20
2018-08-19T06:01:57.774Z,11.17
2018-08-19T06:04:26.783Z,12.60
2018-08-19T06:06:59.986Z,12.77
2018-08-19T06:09:28.859Z,11.10
2018-08-19T06:11:57.783Z,12.37
2018-08-19T06:14:26.748Z,12.83
2018-08-19T06:16:56.082Z,12.00
2018-08-19T06:19:25.082Z,12.00
2018-08-19T06:21:57.822Z,11.73
2018-08-19T06:24:27.145Z,11.70
2018-08-19T06:26:56.047Z,11.93
2018-08-19T06:29:38.928Z,10.97
2018-08-19T06:32:07.852Z,12.90
2018-08-19T06:34:36.729Z,12.30
2018-08-19T06:37:06.169Z,11.13
2018-08-19T06:39:35.491Z,10.63
2018-08-19T06:42:04.344Z,12.87
2018-08-19T06:44:33.142Z,14.03
2018-08-19T06:47:02.062Z,12.53
2018-08-19T06:49:31.726Z,12.23
2018-08-19T06:52:00.509Z,14.37
2018-08-19T06:54:29.347Z,14.37
2018-08-19T06:56:58.821Z,12.13
2018-08-19T06:59:27.640Z,13.43
2018-08-19T07:01:56.474Z,12.80
2018-08-19T07:04:25.291Z,13.80
2018-08-19T07:06:54.104Z,13.20
2018-08-19T07:09:22.921Z,13.03
2018-08-19T07:12:00.532Z,12.23
2018-08-19T07:14:30.508Z,16.40
2018-08-19T07:17:00.292Z,12.90
2018-08-19T07:19:29.116Z,13.00
2018-08-19T07:22:03.064Z,13.93
2018-08-19T07:24:33.175Z,16.20
2018-08-19T07:27:02.580Z,14.23
2018-08-19T07:29:32.205Z,14.93
2018-08-19T07:32:01.593Z,14.13
2018-08-19T07:34:30.408Z,14.83
2018-08-19T07:36:59.323Z,14.47
2018-08-19T07:39:28.615Z,13.40
2018-08-19T07:41:57.616Z,12.83
2018-08-19T07:44:26.499Z,12.70
2018-08-19T07:46:55.574Z,13.23
2018-08-19T07:49:24.412Z,13.03
2018-08-19T07:51:53.268Z,13.13
2018-08-19T07:54:22.088Z,11.33
2018-08-19T07:56:50.924Z,11.93
2018-08-19T07:59:19.793Z,12.60
2018-08-19T08:01:49.138Z,12.53
2018-08-19T08:04:18.158Z,10.70
2018-08-19T08:06:46.987Z,13.50
2018-08-19T08:09:17.545Z,12.70
2018-08-19T08:11:46.351Z,11.07
2018-08-19T08:14:15.193Z,10.60
2018-08-19T08:16:49.277Z,10.70
2018-08-19T08:19:18.144Z,9.83
2018-08-19T08:21:46.955Z,8.03
2018-08-19T08:24:15.782Z,9.47
2018-08-19T08:26:51.648Z,8.40
2018-08-19T08:29:20.675Z,9.47
2018-08-19T08:31:54.622Z,8.83
2018-08-19T08:34:23.866Z,8.90
2018-08-19T08:36:56.954Z,9.47
2018-08-19T08:39:25.900Z,10.00
2018-08-19T08:41:58.444Z,14.77
2018-08-19T08:44:27.574Z,22.60
2018-08-19T08:46:58.780Z,9.73
2018-08-19T08:49:32.798Z,7.53
2018-08-19T08:52:03.464Z,7.93
2018-08-19T08:54:33.157Z,7.43
2018-08-19T08:57:01.975Z,7.30
2018-08-19T08:59:30.882Z,7.57
2018-08-19T09:01:59.740Z,7.40
2018-08-19T09:04:28.906Z,6.40
2018-08-19T09:06:57.708Z,6.77
2018-08-19T09:09:26.495Z,5.83
2018-08-19T09:11:55.325Z,4.43
2018-08-19T09:14:24.124Z,6.03
2018-08-19T09:16:53.016Z,26.77
2018-08-19T09:19:21.834Z,4.23
2018-08-19T09:21:51.195Z,4.43
2018-08-19T09:24:20.431Z,4.83
2018-08-19T09:26:53.079Z,5.57
2018-08-19T09:29:21.877Z,4.70
2018-08-19T09:31:50.690Z,4.07
2018-08-19T09:34:19.463Z,3.50
2018-08-19T09:36:48.291Z,4.67
2018-08-19T09:39:17.498Z,4.83
2018-08-19T09:41:46.415Z,4.70
2018-08-19T09:44:15.271Z,4.70
2018-08-19T09:46:44.126Z,4.20
2018-08-19T09:49:12.890Z,4.30
2018-08-19T09:51:41.665Z,3.93
2018-08-19T09:54:10.722Z,3.80
2018-08-19T09:56:39.753Z,41.47
2018-08-19T09:59:09.260Z,76.57
2018-08-19T10:01:42.263Z,15.10
2018-08-19T10:04:22.550Z,14.80
2018-08-19T10:07:04.347Z,3.47
2018-08-19T10:09:33.169Z,3.40
2018-08-19T10:12:01.960Z,3.90
2018-08-19T10:14:30.803Z,3.10
2018-08-19T10:16:59.675Z,3.50
2018-08-19T10:19:28.478Z,3.67
2018-08-19T10:21:57.381Z,3.37
2018-08-19T10:24:31.740Z,3.43
2018-08-19T10:27:01.018Z,3.40
2018-08-19T10:29:29.921Z,3.07
2018-08-19T10:32:00.941Z,2.77
2018-08-19T10:34:37.030Z,3.00
2018-08-19T10:37:06.967Z,3.63
2018-08-19T10:39:35.706Z,2.70
2018-08-19T10:42:20.456Z,2.83
2018-08-19T10:44:51.339Z,3.23
2018-08-19T10:47:21.102Z,2.70
2018-08-19T10:49:56.394Z,3.13
2018-08-19T10:52:28.420Z,3.13
2018-08-19T10:54:58.727Z,2.90
2018-08-19T10:57:27.548Z,3.60
2018-08-19T10:59:57.646Z,3.50
2018-08-19T11:02:26.693Z,3.40
2018-08-19T11:04:57.105Z,3.23
2018-08-19T11:07:26.409Z,3.70
2018-08-19T11:10:11.640Z,4.20
2018-08-19T11:12:40.387Z,3.50
2018-08-19T11:15:24.307Z,3.40
2018-08-19T11:17:53.112Z,3.63
2018-08-19T11:20:26.075Z,3.50
2018-08-19T11:22:55.561Z,3.37
2018-08-19T11:25:28.034Z,3.10
2018-08-19T11:27:57.844Z,3.97
2018-08-19T11:30:27.072Z,3.10
2018-08-19T11:32:55.914Z,3.53
2018-08-19T11:35:27.647Z,4.03
2018-08-19T11:37:56.442Z,4.03
2018-08-19T11:40:25.309Z,3.93
2018-08-19T11:42:54.060Z,3.63
2018-08-19T11:45:22.858Z,4.00
2018-08-19T11:48:01.871Z,3.37
2018-08-19T11:50:30.877Z,3.67
2018-08-19T11:52:59.682Z,4.00
2018-08-19T11:55:28.499Z,3.87
2018-08-19T11:57:57.551Z,4.50
2018-08-19T12:00:30.844Z,4.87
2018-08-19T12:02:59.890Z,4.13
2018-08-19T12:05:28.679Z,4.50
2018-08-19T12:08:00.853Z,4.93
2018-08-19T12:10:29.631Z,4.67
2018-08-19T12:13:00.402Z,4.30
2018-08-19T12:15:29.186Z,7.73
2018-08-19T12:17:57.963Z,4.50
2018-08-19T12:20:31.694Z,7.50
2018-08-19T12:23:00.578Z,3.90
2018-08-19T12:25:29.428Z,3.53
2018-08-19T12:27:58.274Z,3.70
2018-08-19T12:30:27.996Z,7.50
2018-08-19T12:33:31.466Z,4.20
2018-08-19T12:36:00.223Z,3.73
2018-08-19T12:38:29.047Z,4.00
2018-08-19T12:40:57.864Z,3.53
2018-08-19T12:43:27.118Z,4.30
2018-08-19T12:45:55.993Z,4.37
2018-08-19T12:48:24.734Z,3.60
2018-08-19T12:50:58.772Z,4.07
2018-08-19T12:53:27.595Z,4.13
2018-08-19T12:55:56.548Z,5.37
2018-08-19T12:58:25.412Z,4.20
2018-08-19T13:00:54.565Z,4.40
2018-08-19T13:03:26.737Z,4.13
2018-08-19T13:06:04.411Z,4.63
2018-08-19T13:08:33.207Z,4.73
2018-08-19T13:11:03.961Z,6.03
2018-08-19T13:13:34.007Z,7.07
2018-08-19T13:16:02.895Z,5.53
2018-08-19T13:18:36.854Z,5.43
2018-08-19T13:21:10.965Z,5.33
2018-08-19T13:23:39.807Z,5.10
2018-08-19T13:26:08.633Z,4.90
2018-08-19T13:28:39.336Z,4.97
2018-08-19T13:31:08.667Z,4.80
2018-08-19T13:33:37.566Z,5.00
2018-08-19T13:36:06.510Z,4.93
2018-08-19T13:38:37.726Z,4.47
2018-08-19T13:41:07.895Z,4.63
2018-08-19T13:43:38.147Z,4.90
2018-08-19T13:46:07.099Z,4.73
2018-08-19T13:48:35.915Z,5.07
2018-08-19T13:51:05.170Z,4.67
2018-08-19T13:53:34.009Z,3.97
2018-08-19T13:56:02.934Z,5.03
2018-08-19T13:58:31.776Z,5.60
2018-08-19T14:01:00.631Z,5.57
2018-08-19T14:03:29.399Z,4.50
2018-08-19T14:05:58.227Z,5.03
2018-08-19T14:08:26.994Z,4.83
2018-08-19T14:10:55.823Z,6.07
2018-08-19T14:13:24.634Z,10.43
2018-08-19T14:15:53.520Z,11.27
2018-08-19T14:18:22.316Z,8.47
2018-08-19T14:20:51.207Z,13.27
2018-08-19T14:23:20.019Z,5.57
2018-08-19T14:25:48.808Z,5.73
2018-08-19T14:28:17.566Z,6.33
2018-08-19T14:30:46.430Z,5.60
2018-08-19T14:33:15.414Z,10.07
2018-08-19T14:35:44.223Z,9.13
2018-08-19T14:38:13.087Z,4.60
2018-08-19T14:40:41.958Z,4.93
2018-08-19T14:43:10.806Z,4.07
2018-08-19T14:45:40.400Z,4.97
2018-08-19T14:48:09.264Z,4.57
2018-08-19T14:50:38.106Z,6.07
2018-08-19T14:53:07.015Z,4.47
2018-08-19T14:55:35.813Z,4.47
2018-08-19T14:58:05.044Z,4.53
2018-08-19T15:00:34.243Z,4.47
2018-08-19T15:03:03.027Z,4.30
2018-08-19T15:05:32.047Z,4.10
2018-08-19T15:08:06.835Z,4.47
2018-08-19T15:10:35.687Z,4.47
2018-08-19T15:13:04.505Z,4.40
2018-08-19T15:15:33.322Z,4.13
2018-08-19T15:18:02.358Z,4.70
2018-08-19T15:20:33.798Z,4.23
2018-08-19T15:23:14.260Z,4.87
2018-08-19T15:25:43.428Z,6.17
2018-08-19T15:28:12.221Z,4.53
2018-08-19T15:30:41.920Z,4.43
2018-08-19T15:33:11.779Z,3.53
2018-08-19T15:35:41.006Z,4.73
2018-08-19T15:38:10.279Z,4.53
2018-08-19T15:40:41.573Z,4.13
2018-08-19T15:43:11.643Z,4.70
2018-08-19T15:45:41.376Z,4.43
2018-08-19T15:48:10.181Z,4.60
2018-08-19T15:50:39.042Z,5.23
2018-08-19T15:53:08.853Z,4.47
2018-08-19T15:55:38.158Z,4.80
2018-08-19T15:58:07.262Z,4.90
2018-08-19T16:00:38.771Z,5.13
2018-08-19T16:03:08.481Z,4.50
2018-08-19T16:05:37.266Z,5.17
2018-08-19T16:08:06.693Z,4.80
2018-08-19T16:10:35.543Z,4.30
2018-08-19T16:13:08.858Z,4.90
2018-08-19T16:15:37.729Z,4.77
2018-08-19T16:18:06.770Z,4.63
2018-08-19T16:20:35.643Z,4.60
2018-08-19T16:23:04.437Z,4.93
2018-08-19T16:25:33.391Z,4.70
2018-08-19T16:28:02.255Z,4.87
2018-08-19T16:30:31.110Z,5.17
2018-08-19T16:32:59.931Z,5.27
2018-08-19T16:35:28.706Z,5.00
2018-08-19T16:37:57.543Z,4.40
2018-08-19T16:40:26.380Z,4.73
2018-08-19T16:42:55.171Z,5.17
2018-08-19T16:45:24.006Z,4.67
2018-08-19T16:47:52.793Z,4.90
2018-08-19T16:50:21.747Z,5.10
2018-08-19T16:52:50.709Z,5.20
2018-08-19T16:55:19.580Z,5.03
2018-08-19T16:57:48.396Z,5.47
2018-08-19T17:00:17.195Z,4.40
2018-08-19T17:02:46.095Z,5.60
2018-08-19T17:05:31.876Z,5.20
2018-08-19T17:08:00.782Z,4.80
2018-08-19T17:10:30.193Z,4.93
2018-08-19T17:12:59.688Z,4.50
2018-08-19T17:15:28.872Z,4.87
2018-08-19T17:17:57.794Z,4.60
2018-08-19T17:20:26.658Z,5.20
2018-08-19T17:22:55.463Z,4.40
2018-08-19T17:25:24.222Z,4.97
2018-08-19T17:27:53.037Z,4.77
2018-08-19T17:30:21.831Z,4.90
2018-08-19T17:33:03.016Z,4.80
2018-08-19T17:35:31.965Z,5.07
2018-08-19T17:38:00.807Z,4.97
2018-08-19T17:40:31.684Z,4.70
2018-08-19T17:43:01.130Z,4.37
2018-08-19T17:45:29.988Z,4.83
2018-08-19T17:47:58.914Z,5.30
2018-08-19T17:50:28.844Z,5.87
2018-08-19T17:52:58.991Z,5.70
2018-08-19T17:55:28.059Z,5.87
2018-08-19T17:57:58.359Z,4.73
2018-08-19T18:00:27.267Z,5.77
2018-08-19T18:02:56.219Z,6.70
2018-08-19T18:05:25.158Z,10.37
2018-08-19T18:07:54.946Z,6.90
2018-08-19T18:10:23.758Z,5.90
2018-08-19T18:12:52.851Z,8.07
2018-08-19T18:15:23.415Z,6.73
2018-08-19T18:18:01.675Z,5.20
2018-08-19T18:20:36.626Z,6.20
2018-08-19T18:23:07.887Z,4.80
2018-08-19T18:25:36.680Z,5.33
2018-08-19T18:28:11.465Z,6.30
2018-08-19T18:30:40.401Z,6.77
2018-08-19T18:33:09.581Z,7.03
2018-08-19T18:35:38.391Z,7.07
2018-08-19T18:38:17.044Z,10.00
2018-08-19T18:40:46.034Z,11.03
2018-08-19T18:43:14.885Z,12.23
2018-08-19T18:45:46.607Z,13.63
2018-08-19T18:48:16.090Z,9.60
2018-08-19T18:50:44.913Z,6.90
2018-08-19T18:53:13.774Z,8.13
2018-08-19T18:55:42.830Z,5.63
2018-08-19T18:58:11.737Z,5.27
2018-08-19T19:01:00.359Z,5.10
2018-08-19T19:03:29.302Z,5.27
2018-08-19T19:05:58.506Z,5.00
2018-08-19T19:08:27.287Z,5.63
2018-08-19T19:11:10.718Z,5.87
2018-08-19T19:13:39.526Z,8.70
2018-08-19T19:16:08.943Z,6.20
2018-08-19T19:18:37.737Z,5.10
2018-08-19T19:21:07.256Z,5.80
2018-08-19T19:23:37.590Z,7.13
2018-08-19T19:26:07.596Z,6.10
2018-08-19T19:28:36.459Z,6.07
2018-08-19T19:31:11.106Z,5.40
2018-08-19T19:33:39.878Z,5.40
2018-08-19T19:36:13.970Z,5.40
2018-08-19T19:38:54.164Z,5.50
2018-08-19T19:41:28.058Z,5.10
2018-08-19T19:43:56.869Z,5.80
2018-08-19T19:46:26.002Z,6.57
2018-08-19T19:48:55.190Z,5.20
2018-08-19T19:51:24.020Z,6.10
2018-08-19T19:53:52.839Z,5.20
2018-08-19T19:56:21.627Z,5.67
2018-08-19T19:58:51.968Z,5.87
2018-08-19T20:01:20.821Z,6.17
2018-08-19T20:03:54.920Z,6.30
2018-08-19T20:06:24.189Z,6.20
2018-08-19T20:08:53.374Z,5.30
2018-08-19T20:11:30.263Z,5.90
2018-08-19T20:14:00.764Z,5.93
2018-08-19T20:16:29.568Z,5.50
2018-08-19T20:18:58.382Z,5.10
2018-08-19T20:21:28.443Z,4.93
2018-08-19T20:23:58.402Z,5.17
2018-08-19T20:26:27.691Z,5.20
2018-08-19T20:28:58.679Z,5.60
2018-08-19T20:31:27.523Z,5.30
2018-08-19T20:33:56.371Z,4.60
2018-08-19T20:36:25.597Z,4.93
2018-08-19T20:38:54.446Z,5.00
2018-08-19T20:41:23.290Z,4.60
2018-08-19T20:43:52.182Z,5.13
2018-08-19T20:46:21.024Z,5.17
2018-08-19T20:48:49.910Z,5.10
2018-08-19T20:51:18.730Z,5.20
2018-08-19T20:53:47.542Z,5.20
2018-08-19T20:56:16.334Z,4.87
2018-08-19T20:58:45.177Z,4.60
2018-08-19T21:01:19.296Z,5.07
2018-08-19T21:03:48.082Z,4.90
2018-08-19T21:06:16.913Z,5.47
2018-08-19T21:08:45.699Z,5.50
2018-08-19T21:11:14.494Z,4.80
2018-08-19T21:13:43.292Z,4.90
2018-08-19T21:16:12.066Z,5.30
2018-08-19T21:18:40.925Z,5.10
2018-08-19T21:21:09.778Z,5.13
2018-08-19T21:23:38.641Z,4.67
2018-08-19T21:26:07.551Z,4.83
2018-08-19T21:28:36.362Z,4.70
2018-08-19T21:31:11.766Z,4.83
2018-08-19T21:33:40.608Z,4.70
2018-08-19T21:36:09.552Z,4.97
2018-08-19T21:38:38.342Z,5.00
2018-08-19T21:41:07.122Z,5.20
2018-08-19T21:43:35.937Z,5.40
2018-08-19T21:46:04.804Z,5.67
2018-08-19T21:48:33.591Z,4.70
2018-08-19T21:51:02.385Z,4.53
2018-08-19T21:53:31.174Z,5.27
2018-08-19T21:55:59.944Z,4.93
2018-08-19T21:58:28.796Z,4.33
2018-08-19T22:01:02.503Z,5.23
2018-08-19T22:03:51.938Z,4.87
2018-08-19T22:06:20.763Z,5.40
2018-08-19T22:08:49.609Z,5.67
2018-08-19T22:11:18.465Z,5.93
2018-08-19T22:13:47.307Z,7.43
2018-08-19T22:16:16.119Z,6.30
2018-08-19T22:18:45.011Z,7.23
2018-08-19T22:21:18.917Z,7.83
2018-08-19T22:23:50.138Z,7.23
2018-08-19T22:26:20.024Z,7.87
2018-08-19T22:29:51.815Z,7.37
2018-08-19T22:32:20.683Z,7.33
2018-08-19T22:34:49.510Z,6.67
2018-08-19T22:37:18.364Z,7.40
2018-08-19T22:39:48.153Z,8.00
2018-08-19T22:42:17.133Z,7.47
2018-08-19T22:44:46.097Z,7.57
2018-08-19T22:47:14.886Z,6.80
2018-08-19T22:49:43.711Z,7.93
2018-08-19T22:52:19.896Z,7.33
2018-08-19T22:54:50.424Z,7.03
2018-08-19T22:57:19.253Z,5.90
2018-08-19T22:59:48.091Z,6.57
2018-08-19T23:02:17.291Z,5.57
2018-08-19T23:04:46.831Z,6.73
2018-08-19T23:07:15.713Z,5.53
2018-08-19T23:09:44.573Z,6.87
2018-08-19T23:12:13.344Z,6.07
2018-08-19T23:14:53.074Z,5.57
2018-08-19T23:17:22.255Z,5.37
2018-08-19T23:19:51.964Z,5.87
2018-08-19T23:22:20.816Z,6.10
2018-08-19T23:24:49.624Z,6.40
2018-08-19T23:27:18.390Z,5.60
2018-08-19T23:29:47.215Z,6.10
2018-08-19T23:32:16.090Z,5.77
2018-08-19T23:34:44.854Z,6.37
2018-08-19T23:37:13.606Z,5.70
2018-08-19T23:39:42.402Z,5.70
2018-08-19T23:42:11.198Z,6.00
2018-08-19T23:44:40.048Z,5.90
2018-08-19T23:47:08.872Z,5.57
2018-08-19T23:49:37.663Z,5.57
2018-08-19T23:52:06.550Z,5.73
2018-08-19T23:54:35.355Z,6.83
2018-08-19T23:57:04.493Z,5.83
2018-08-19T23:59:35.935Z,6.40
